Time;durP1;ratioP1;P1;durP2;ratioP2;P2;SDS_P1;SDS_P2;PMS_P1;PMS_P2;Temp;Humidity;BMP_temperature;BMP_pressure;BME280_temperature;BME280_humidity;BME280_pressure;Samples;Min_cycle;Max_cycle;Signal;HPM_P1;HPM_P2
2023/10/26 00:00:09;;;;;;;2.30;2.07;;;;;;;;;;467310;28;1225;-71
2023/10/26 00:00:25;;;;;;;2.47;1.90;;;;;;;;;;464274;28;1178;-70
2023/10/26 00:00:40;;;;;;;2.97;2.05;;;;;;;;;;465228;28;1529;-70
2023/10/26 00:00:57;;;;;;;2.95;2.30;;;;;;;;;;465867;28;1280;-70
2023/10/26 00:01:13;;;;;;;3.15;2.20;;;;;;;;;;468184;28;965;-70
2023/10/26 00:01:28;;;;;;;2.60;2.20;;;;;;;;;;467133;28;926;-70
2023/10/26 00:01:43;;;;;;;2.40;2.17;;;;;;;;;;467228;28;1021;-70
2023/10/26 00:01:58;;;;;;;2.33;1.97;;;;;;;;;;469135;28;1600;-70
2023/10/26 00:02:14;;;;;;;2.17;1.90;;;;;;;;;;471061;28;1263;-70
2023/10/26 00:02:29;;;;;;;2.20;2.00;;;;;;;;;;468502;28;1346;-70
2023/10/26 00:02:44;;;;;;;2.53;2.10;;;;;;;;;;468905;28;1098;-70
2023/10/26 00:02:59;;;;;;;2.83;2.23;;;;;;;;;;469070;28;1243;-70
2023/10/26 00:03:15;;;;;;;2.47;2.22;;;;;;;;;;468816;28;1499;-70
2023/10/26 00:03:30;;;;;;;2.40;2.20;;;;;;;;;;468482;28;1169;-70
2023/10/26 00:03:45;;;;;;;2.47;2.27;;;;;;;;;;469215;28;1233;-70
2023/10/26 00:04:01;;;;;;;2.55;2.35;;;;;;;;;;468700;28;1040;-70
2023/10/26 00:04:16;;;;;;;2.50;2.30;;;;;;;;;;470767;28;1088;-70
2023/10/26 00:04:31;;;;;;;2.50;2.30;;;;;;;;;;469484;28;1285;-70
2023/10/26 00:04:46;;;;;;;3.13;2.50;;;;;;;;;;468660;28;921;-70
2023/10/26 00:05:02;;;;;;;3.33;2.50;;;;;;;;;;468503;28;1203;-70
2023/10/26 00:05:18;;;;;;;2.87;2.33;;;;;;;;;;469317;28;1298;-70
2023/10/26 00:05:33;;;;;;;2.72;2.35;;;;;;;;;;469347;28;945;-70
2023/10/26 00:05:48;;;;;;;2.57;2.20;;;;;;;;;;470614;28;1176;-70
2023/10/26 00:06:04;;;;;;;2.40;2.20;;;;;;;;;;469111;28;1188;-70
2023/10/26 00:06:19;;;;;;;2.50;2.30;;;;;;;;;;468846;28;1393;-70
2023/10/26 00:06:35;;;;;;;2.78;2.30;;;;;;;;;;468705;28;1013;-70
2023/10/26 00:06:50;;;;;;;2.60;2.20;;;;;;;;;;467326;28;1203;-70
2023/10/26 00:07:06;;;;;;;3.00;2.40;;;;;;;;;;468414;28;1152;-70
2023/10/26 00:07:21;;;;;;;4.20;2.40;;;;;;;;;;466890;28;1394;-70
2023/10/26 00:07:36;;;;;;;3.37;2.40;;;;;;;;;;466044;28;1103;-70
2023/10/26 00:07:52;;;;;;;2.63;2.40;;;;;;;;;;464554;28;2033;-70
2023/10/26 00:08:07;;;;;;;2.80;2.50;;;;;;;;;;465094;28;1243;-70
2023/10/26 00:08:22;;;;;;;2.60;2.37;;;;;;;;;;465620;28;1253;-70
2023/10/26 00:08:37;;;;;;;2.53;2.23;;;;;;;;;;466651;28;1068;-70
2023/10/26 00:08:53;;;;;;;2.85;2.30;;;;;;;;;;469446;28;1179;-69
2023/10/26 00:09:08;;;;;;;2.70;2.30;;;;;;;;;;467351;28;1077;-69
2023/10/26 00:09:24;;;;;;;2.53;2.30;;;;;;;;;;469580;28;1290;-70
2023/10/26 00:09:39;;;;;;;2.58;2.30;;;;;;;;;;469270;28;1064;-70
2023/10/26 00:09:54;;;;;;;2.40;2.20;;;;;;;;;;468630;28;889;-69
2023/10/26 00:10:10;;;;;;;2.70;2.20;;;;;;;;;;468790;28;942;-70
2023/10/26 00:10:25;;;;;;;3.13;2.40;;;;;;;;;;469329;28;1053;-70
2023/10/26 00:10:40;;;;;;;2.70;2.27;;;;;;;;;;467304;28;1167;-70
2023/10/26 00:10:56;;;;;;;2.40;2.17;;;;;;;;;;467067;28;1214;-70
2023/10/26 00:11:11;;;;;;;2.40;2.20;;;;;;;;;;467212;28;1197;-70
2023/10/26 00:11:26;;;;;;;2.60;2.40;;;;;;;;;;469433;28;1014;-70
2023/10/26 00:11:41;;;;;;;3.20;2.60;;;;;;;;;;467694;28;1210;-70
2023/10/26 00:11:57;;;;;;;2.93;2.47;;;;;;;;;;462798;28;1147;-69
2023/10/26 00:12:12;;;;;;;2.70;2.40;;;;;;;;;;462859;28;915;-70
2023/10/26 00:12:28;;;;;;;2.90;2.40;;;;;;;;;;464717;28;1187;-69
2023/10/26 00:12:44;;;;;;;2.83;2.40;;;;;;;;;;465522;28;965;-69
2023/10/26 00:12:59;;;;;;;2.60;2.40;;;;;;;;;;467124;28;965;-70
2023/10/26 00:13:14;;;;;;;2.53;2.33;;;;;;;;;;467888;28;1320;-70
2023/10/26 00:13:30;;;;;;;2.93;2.50;;;;;;;;;;466712;28;1179;-69
2023/10/26 00:13:45;;;;;;;3.20;2.60;;;;;;;;;;468856;28;1423;-70
2023/10/26 00:14:00;;;;;;;3.13;2.60;;;;;;;;;;468704;28;879;-70
2023/10/26 00:14:16;;;;;;;3.28;2.60;;;;;;;;;;469047;28;1304;-70
2023/10/26 00:14:33;;;;;;;3.27;2.60;;;;;;;;;;470838;28;898;-70
2023/10/26 00:14:48;;;;;;;3.10;2.53;;;;;;;;;;470952;28;1077;-70
2023/10/26 00:15:04;;;;;;;2.80;2.33;;;;;;;;;;470970;28;1091;-69
2023/10/26 00:15:19;;;;;;;2.60;2.33;;;;;;;;;;470281;28;1009;-70
2023/10/26 00:15:35;;;;;;;2.60;2.40;;;;;;;;;;469550;28;1397;-70
2023/10/26 00:15:50;;;;;;;2.83;2.53;;;;;;;;;;469985;28;1026;-70
2023/10/26 00:16:06;;;;;;;2.92;2.60;;;;;;;;;;468185;28;1513;-69
2023/10/26 00:16:21;;;;;;;2.60;2.40;;;;;;;;;;467551;28;1514;-70
2023/10/26 00:16:37;;;;;;;2.95;2.47;;;;;;;;;;468621;28;1028;-69
2023/10/26 00:16:52;;;;;;;3.13;2.60;;;;;;;;;;469095;28;1413;-69
2023/10/26 00:17:07;;;;;;;2.87;2.50;;;;;;;;;;466600;28;999;-69
2023/10/26 00:17:23;;;;;;;3.00;2.53;;;;;;;;;;465484;28;1124;-69
2023/10/26 00:17:38;;;;;;;2.87;2.57;;;;;;;;;;465063;28;962;-69
2023/10/26 00:17:53;;;;;;;2.88;2.60;;;;;;;;;;466211;28;1256;-70
2023/10/26 00:18:09;;;;;;;3.20;2.63;;;;;;;;;;465056;28;1259;-70
2023/10/26 00:18:24;;;;;;;3.37;2.80;;;;;;;;;;466516;28;937;-69
2023/10/26 00:18:40;;;;;;;3.40;2.75;;;;;;;;;;467978;28;1341;-70
2023/10/26 00:18:55;;;;;;;3.10;2.70;;;;;;;;;;468242;28;1226;-69
2023/10/26 00:19:10;;;;;;;2.90;2.60;;;;;;;;;;470561;28;1118;-70
2023/10/26 00:19:25;;;;;;;2.67;2.40;;;;;;;;;;470406;28;937;-69
2023/10/26 00:19:41;;;;;;;3.00;2.70;;;;;;;;;;470560;28;893;-69
2023/10/26 00:19:56;;;;;;;3.07;2.77;;;;;;;;;;470942;28;1189;-70
2023/10/26 00:20:12;;;;;;;2.90;2.60;;;;;;;;;;468823;28;1202;-69
2023/10/26 00:20:27;;;;;;;2.90;2.53;;;;;;;;;;468938;28;949;-70
2023/10/26 00:20:45;;;;;;;3.75;2.80;;;;;;;;;;468417;28;1286;-69
2023/10/26 00:21:00;;;;;;;3.95;3.08;;;;;;;;;;467579;28;1218;-70
2023/10/26 00:21:16;;;;;;;3.60;3.13;;;;;;;;;;468123;28;917;-70
2023/10/26 00:21:31;;;;;;;3.70;3.10;;;;;;;;;;467719;28;898;-70
2023/10/26 00:21:47;;;;;;;4.10;3.00;;;;;;;;;;465524;28;1192;-70
2023/10/26 00:22:02;;;;;;;4.22;3.00;;;;;;;;;;466201;28;1069;-69
2023/10/26 00:22:19;;;;;;;3.50;2.90;;;;;;;;;;465975;28;1287;-70
2023/10/26 00:22:34;;;;;;;3.05;2.75;;;;;;;;;;465796;28;1017;-70
2023/10/26 00:22:49;;;;;;;4.03;2.90;;;;;;;;;;467546;28;929;-70
2023/10/26 00:23:06;;;;;;;3.85;2.90;;;;;;;;;;469146;28;897;-70
2023/10/26 00:23:22;;;;;;;3.08;2.70;;;;;;;;;;468629;28;1174;-70
2023/10/26 00:23:37;;;;;;;3.80;2.83;;;;;;;;;;469699;28;969;-70
2023/10/26 00:23:52;;;;;;;3.73;3.00;;;;;;;;;;468614;28;1192;-70
2023/10/26 00:24:08;;;;;;;3.20;2.90;;;;;;;;;;470836;28;973;-70
2023/10/26 00:24:23;;;;;;;3.20;2.90;;;;;;;;;;470659;28;913;-70
2023/10/26 00:24:39;;;;;;;2.92;2.70;;;;;;;;;;472735;28;1420;-70
2023/10/26 00:24:54;;;;;;;2.93;2.70;;;;;;;;;;471104;28;1285;-70
2023/10/26 00:25:09;;;;;;;2.90;2.70;;;;;;;;;;471838;28;1063;-69
2023/10/26 00:25:25;;;;;;;3.17;2.88;;;;;;;;;;471007;28;1228;-70
2023/10/26 00:25:40;;;;;;;3.30;3.00;;;;;;;;;;470523;28;1357;-70
2023/10/26 00:25:55;;;;;;;3.00;2.70;;;;;;;;;;471071;28;1053;-70
2023/10/26 00:26:11;;;;;;;3.08;2.78;;;;;;;;;;470067;28;1110;-70
2023/10/26 00:26:26;;;;;;;3.27;2.97;;;;;;;;;;470121;28;1117;-69
2023/10/26 00:26:41;;;;;;;3.17;2.87;;;;;;;;;;469605;28;865;-69
2023/10/26 00:26:58;;;;;;;3.10;2.67;;;;;;;;;;469854;28;1060;-69
2023/10/26 00:27:14;;;;;;;3.92;2.80;;;;;;;;;;469353;28;1052;-70
2023/10/26 00:27:29;;;;;;;4.00;2.92;;;;;;;;;;467892;28;1067;-70
2023/10/26 00:27:44;;;;;;;3.10;2.80;;;;;;;;;;468042;28;2017;-70
2023/10/26 00:28:00;;;;;;;3.33;2.80;;;;;;;;;;468577;28;933;-70
2023/10/26 00:28:15;;;;;;;3.43;2.80;;;;;;;;;;468984;28;1145;-69
2023/10/26 00:28:30;;;;;;;3.30;2.80;;;;;;;;;;466781;28;1174;-70
2023/10/26 00:28:45;;;;;;;3.42;3.00;;;;;;;;;;468540;28;1214;-70
2023/10/26 00:29:01;;;;;;;3.73;3.10;;;;;;;;;;471337;28;1188;-70
2023/10/26 00:29:16;;;;;;;3.47;2.90;;;;;;;;;;467508;28;1200;-70
2023/10/26 00:29:31;;;;;;;3.10;2.80;;;;;;;;;;469113;28;1140;-69
2023/10/26 00:29:47;;;;;;;3.13;2.83;;;;;;;;;;468813;28;1192;-70
2023/10/26 00:30:02;;;;;;;3.53;2.83;;;;;;;;;;468874;28;877;-70
2023/10/26 00:30:18;;;;;;;3.25;2.75;;;;;;;;;;468193;28;1220;-69
2023/10/26 00:30:33;;;;;;;3.20;2.80;;;;;;;;;;467010;28;1258;-70
2023/10/26 00:30:49;;;;;;;3.20;2.90;;;;;;;;;;464423;28;1295;-70
2023/10/26 00:31:04;;;;;;;3.20;2.90;;;;;;;;;;466439;28;905;-70
2023/10/26 00:31:19;;;;;;;3.40;2.83;;;;;;;;;;464772;28;1058;-70
2023/10/26 00:31:35;;;;;;;4.00;2.90;;;;;;;;;;465602;28;1302;-70
2023/10/26 00:31:50;;;;;;;3.83;2.90;;;;;;;;;;468281;28;1532;-70
2023/10/26 00:32:07;;;;;;;3.58;2.92;;;;;;;;;;466551;28;1214;-70
2023/10/26 00:32:22;;;;;;;3.58;2.97;;;;;;;;;;467304;28;1258;-69
2023/10/26 00:32:40;;;;;;;3.30;2.90;;;;;;;;;;469029;28;1020;-69
2023/10/26 00:32:55;;;;;;;3.47;2.90;;;;;;;;;;469987;28;1315;-70
2023/10/26 00:33:11;;;;;;;3.33;3.03;;;;;;;;;;470290;28;1533;-70
2023/10/26 00:33:26;;;;;;;3.20;2.90;;;;;;;;;;469055;28;1306;-70
2023/10/26 00:33:41;;;;;;;3.10;2.80;;;;;;;;;;467414;28;1249;-69
2023/10/26 00:33:57;;;;;;;3.45;3.15;;;;;;;;;;466722;28;1245;-70
2023/10/26 00:34:12;;;;;;;3.70;3.30;;;;;;;;;;468284;28;1526;-70
2023/10/26 00:34:27;;;;;;;3.45;3.15;;;;;;;;;;469369;28;1112;-70
2023/10/26 00:34:43;;;;;;;3.40;3.10;;;;;;;;;;470952;28;1624;-70
2023/10/26 00:34:58;;;;;;;3.60;3.10;;;;;;;;;;471009;28;1162;-70
2023/10/26 00:35:14;;;;;;;3.38;2.97;;;;;;;;;;470727;28;1257;-70
2023/10/26 00:35:29;;;;;;;3.20;2.90;;;;;;;;;;471449;28;1171;-70
2023/10/26 00:35:45;;;;;;;3.20;2.90;;;;;;;;;;468445;28;1256;-70
2023/10/26 00:36:00;;;;;;;3.27;2.97;;;;;;;;;;473595;28;1253;-69
2023/10/26 00:36:15;;;;;;;3.30;3.00;;;;;;;;;;470988;28;1174;-70
2023/10/26 00:36:31;;;;;;;3.40;3.10;;;;;;;;;;469186;28;1068;-70
2023/10/26 00:36:46;;;;;;;3.33;3.03;;;;;;;;;;468769;28;1295;-69
2023/10/26 00:37:02;;;;;;;3.20;2.90;;;;;;;;;;469023;28;1173;-70
2023/10/26 00:37:17;;;;;;;3.30;3.00;;;;;;;;;;467025;28;1256;-70
2023/10/26 00:37:32;;;;;;;3.15;2.85;;;;;;;;;;467082;28;1237;-69
2023/10/26 00:37:48;;;;;;;3.00;2.80;;;;;;;;;;467595;28;1206;-70
2023/10/26 00:38:03;;;;;;;3.20;2.90;;;;;;;;;;465067;28;1270;-70
2023/10/26 00:38:19;;;;;;;3.20;2.90;;;;;;;;;;465145;28;1214;-70
2023/10/26 00:38:34;;;;;;;3.10;2.80;;;;;;;;;;465316;28;1218;-69
2023/10/26 00:38:49;;;;;;;3.67;2.97;;;;;;;;;;465403;28;906;-69
2023/10/26 00:39:05;;;;;;;4.07;3.00;;;;;;;;;;465294;28;1275;-69
2023/10/26 00:39:20;;;;;;;3.75;3.00;;;;;;;;;;465111;28;1210;-70
2023/10/26 00:39:36;;;;;;;4.10;3.10;;;;;;;;;;464455;28;1310;-70
2023/10/26 00:39:51;;;;;;;3.63;3.00;;;;;;;;;;465944;28;1281;-70
2023/10/26 00:40:07;;;;;;;3.40;3.00;;;;;;;;;;467229;28;1257;-70
2023/10/26 00:40:23;;;;;;;4.10;3.00;;;;;;;;;;468248;28;1346;-70
2023/10/26 00:40:40;;;;;;;4.00;2.95;;;;;;;;;;466514;28;1204;-69
2023/10/26 00:40:56;;;;;;;4.68;3.13;;;;;;;;;;465876;28;1481;-70
2023/10/26 00:41:11;;;;;;;4.45;3.08;;;;;;;;;;465358;28;1242;-69
2023/10/26 00:41:26;;;;;;;3.20;2.90;;;;;;;;;;465335;28;1420;-70
2023/10/26 00:41:42;;;;;;;3.30;3.00;;;;;;;;;;466063;28;1262;-70
2023/10/26 00:41:57;;;;;;;3.73;3.20;;;;;;;;;;466670;28;1162;-70
2023/10/26 00:42:12;;;;;;;3.67;2.95;;;;;;;;;;467267;28;1389;-70
2023/10/26 00:42:28;;;;;;;3.17;2.87;;;;;;;;;;467412;28;1252;-70
2023/10/26 00:42:43;;;;;;;3.30;3.00;;;;;;;;;;467123;28;871;-70
2023/10/26 00:43:02;;;;;;;3.40;3.03;;;;;;;;;;466911;28;1141;-70
2023/10/26 00:43:21;;;;;;;3.58;3.00;;;;;;;;;;468410;28;1844;-70
2023/10/26 00:43:36;;;;;;;3.28;2.92;;;;;;;;;;468806;28;1164;-70
2023/10/26 00:43:51;;;;;;;3.08;2.78;;;;;;;;;;467665;28;1300;-70
2023/10/26 00:44:07;;;;;;;3.20;2.90;;;;;;;;;;467518;28;1272;-70
2023/10/26 00:44:23;;;;;;;3.60;3.03;;;;;;;;;;468688;28;1331;-70
2023/10/26 00:44:38;;;;;;;3.33;3.03;;;;;;;;;;468830;28;1262;-70
2023/10/26 00:44:56;;;;;;;3.95;3.08;;;;;;;;;;468086;28;1267;-70
2023/10/26 00:45:11;;;;;;;4.03;3.00;;;;;;;;;;470605;28;1203;-70
2023/10/26 00:45:28;;;;;;;3.67;3.00;;;;;;;;;;471526;28;1164;-70
2023/10/26 00:45:43;;;;;;;3.42;3.00;;;;;;;;;;469488;28;1211;-70
2023/10/26 00:45:59;;;;;;;3.30;3.00;;;;;;;;;;469222;28;1294;-69
2023/10/26 00:46:15;;;;;;;3.40;3.10;;;;;;;;;;469700;28;1342;-70
2023/10/26 00:46:30;;;;;;;3.30;3.00;;;;;;;;;;468729;28;1223;-69
2023/10/26 00:46:47;;;;;;;3.13;2.83;;;;;;;;;;467696;28;1196;-69
2023/10/26 00:47:03;;;;;;;3.10;2.80;;;;;;;;;;465632;28;1504;-69
2023/10/26 00:47:18;;;;;;;3.20;2.90;;;;;;;;;;465267;28;1221;-70
2023/10/26 00:47:34;;;;;;;3.10;2.80;;;;;;;;;;466429;28;1213;-70
2023/10/26 00:47:50;;;;;;;3.20;2.90;;;;;;;;;;467933;28;2085;-70
2023/10/26 00:48:05;;;;;;;3.40;3.03;;;;;;;;;;469430;28;1086;-70
2023/10/26 00:48:22;;;;;;;3.50;2.90;;;;;;;;;;468884;28;1021;-70
2023/10/26 00:48:38;;;;;;;3.42;3.05;;;;;;;;;;468470;28;1173;-70
2023/10/26 00:48:53;;;;;;;3.40;3.10;;;;;;;;;;470481;28;1133;-70
2023/10/26 00:49:12;;;;;;;3.20;2.90;;;;;;;;;;470821;28;1149;-70
2023/10/26 00:49:27;;;;;;;3.15;2.85;;;;;;;;;;470667;28;918;-69
2023/10/26 00:49:43;;;;;;;3.30;2.83;;;;;;;;;;470733;28;1372;-69
2023/10/26 00:49:59;;;;;;;3.17;2.70;;;;;;;;;;471544;28;968;-69
2023/10/26 00:50:14;;;;;;;3.20;2.60;;;;;;;;;;469589;28;921;-69
2023/10/26 00:50:30;;;;;;;3.17;2.70;;;;;;;;;;467861;28;1073;-70
2023/10/26 00:50:47;;;;;;;3.20;2.90;;;;;;;;;;469939;28;950;-70
2023/10/26 00:51:02;;;;;;;3.63;3.10;;;;;;;;;;473336;28;1198;-69
2023/10/26 00:51:18;;;;;;;3.88;3.10;;;;;;;;;;470562;28;1149;-70
2023/10/26 00:51:34;;;;;;;3.33;2.90;;;;;;;;;;469860;28;1041;-69
2023/10/26 00:51:59;;;;;;;3.13;2.73;;;;;;;;;;470093;28;1484;-70
2023/10/26 00:52:14;;;;;;;3.83;2.88;;;;;;;;;;469026;28;1175;-70
2023/10/26 00:52:30;;;;;;;4.03;2.93;;;;;;;;;;467972;28;1978;-70
2023/10/26 00:52:46;;;;;;;3.72;2.85;;;;;;;;;;467959;28;941;-70
2023/10/26 00:53:01;;;;;;;3.25;2.95;;;;;;;;;;470823;28;949;-70
2023/10/26 00:53:19;;;;;;;3.27;2.97;;;;;;;;;;470076;28;952;-70
2023/10/26 00:53:35;;;;;;;3.10;2.80;;;;;;;;;;469845;28;1119;-70
2023/10/26 00:53:51;;;;;;;3.20;2.90;;;;;;;;;;470534;28;1057;-69
2023/10/26 00:54:07;;;;;;;3.20;2.90;;;;;;;;;;470894;28;1294;-70
2023/10/26 00:54:24;;;;;;;3.17;2.88;;;;;;;;;;471059;28;936;-70
2023/10/26 00:54:42;;;;;;;3.20;2.90;;;;;;;;;;471077;28;1154;-70
2023/10/26 00:54:57;;;;;;;3.42;3.10;;;;;;;;;;470283;28;1401;-70
2023/10/26 00:55:13;;;;;;;3.83;3.17;;;;;;;;;;470449;28;1437;-70
2023/10/26 00:55:29;;;;;;;3.70;3.10;;;;;;;;;;472481;28;1057;-69
2023/10/26 00:55:47;;;;;;;3.40;3.10;;;;;;;;;;469223;28;929;-69
2023/10/26 00:56:03;;;;;;;3.30;3.00;;;;;;;;;;470808;28;1149;-69
2023/10/26 00:56:21;;;;;;;3.40;3.10;;;;;;;;;;469784;28;1028;-70
2023/10/26 00:56:37;;;;;;;3.30;3.00;;;;;;;;;;470505;28;1154;-70
2023/10/26 00:56:52;;;;;;;3.20;2.90;;;;;;;;;;470968;28;1258;-70
2023/10/26 00:57:09;;;;;;;3.40;3.10;;;;;;;;;;470169;28;1181;-70
2023/10/26 00:57:26;;;;;;;3.40;3.10;;;;;;;;;;469163;28;1060;-70
2023/10/26 00:57:42;;;;;;;3.75;3.10;;;;;;;;;;468993;28;1210;-69
2023/10/26 00:57:58;;;;;;;3.65;2.90;;;;;;;;;;467793;28;965;-70
2023/10/26 00:58:14;;;;;;;4.75;2.90;;;;;;;;;;468288;28;1245;-69
2023/10/26 00:58:31;;;;;;;4.50;2.90;;;;;;;;;;467679;28;1207;-69
2023/10/26 00:58:47;;;;;;;3.28;2.97;;;;;;;;;;467719;28;1188;-70
2023/10/26 00:59:03;;;;;;;3.20;2.90;;;;;;;;;;468135;28;933;-69
2023/10/26 00:59:19;;;;;;;3.17;2.88;;;;;;;;;;466402;28;1343;-70
2023/10/26 00:59:35;;;;;;;3.38;3.03;;;;;;;;;;466690;28;945;-70
2023/10/26 00:59:52;;;;;;;3.30;3.00;;;;;;;;;;467766;28;1066;-70
2023/10/26 01:00:09;;;;;;;3.30;3.00;;;;;;;;;;469526;28;1232;-70
2023/10/26 01:00:27;;;;;;;3.10;2.80;;;;;;;;;;467481;28;1298;-70
2023/10/26 01:00:43;;;;;;;3.30;3.00;;;;;;;;;;468352;28;1322;-69
2023/10/26 01:00:58;;;;;;;3.40;3.10;;;;;;;;;;469787;28;866;-69
2023/10/26 01:01:15;;;;;;;3.40;3.10;;;;;;;;;;470112;28;1128;-69
2023/10/26 01:01:30;;;;;;;3.30;2.90;;;;;;;;;;471557;28;1178;-70
2023/10/26 01:01:47;;;;;;;3.40;2.97;;;;;;;;;;470393;28;1066;-70
2023/10/26 01:02:03;;;;;;;3.20;2.90;;;;;;;;;;470352;28;905;-70
2023/10/26 01:02:19;;;;;;;3.47;3.17;;;;;;;;;;470329;28;1007;-70
2023/10/26 01:02:36;;;;;;;3.60;3.30;;;;;;;;;;470325;28;894;-70
2023/10/26 01:02:52;;;;;;;3.33;3.03;;;;;;;;;;470652;28;974;-70
2023/10/26 01:03:07;;;;;;;3.47;3.17;;;;;;;;;;467984;28;1259;-70
2023/10/26 01:03:25;;;;;;;3.60;3.30;;;;;;;;;;469155;28;969;-70
2023/10/26 01:03:41;;;;;;;4.25;3.47;;;;;;;;;;467361;28;1355;-69
2023/10/26 01:03:56;;;;;;;3.70;3.23;;;;;;;;;;467081;28;1181;-69
2023/10/26 01:04:15;;;;;;;3.38;3.08;;;;;;;;;;468962;28;903;-70
2023/10/26 01:04:30;;;;;;;3.20;2.90;;;;;;;;;;469399;28;1139;-69
2023/10/26 01:04:46;;;;;;;3.20;2.90;;;;;;;;;;468834;28;930;-70
2023/10/26 01:05:01;;;;;;;3.20;2.90;;;;;;;;;;469909;28;1018;-70
2023/10/26 01:05:17;;;;;;;3.20;2.90;;;;;;;;;;471057;28;1141;-70
2023/10/26 01:05:32;;;;;;;3.70;2.90;;;;;;;;;;470973;28;898;-70
2023/10/26 01:05:47;;;;;;;3.90;2.80;;;;;;;;;;471249;28;1361;-70
2023/10/26 01:06:03;;;;;;;3.10;2.63;;;;;;;;;;471967;28;1491;-69
2023/10/26 01:06:18;;;;;;;2.80;2.60;;;;;;;;;;471449;28;930;-70
2023/10/26 01:06:34;;;;;;;3.00;2.70;;;;;;;;;;471096;28;1385;-70
2023/10/26 01:06:49;;;;;;;3.00;2.70;;;;;;;;;;469227;28;1214;-70
2023/10/26 01:07:04;;;;;;;3.33;3.00;;;;;;;;;;470276;28;1152;-69
2023/10/26 01:07:20;;;;;;;3.20;2.90;;;;;;;;;;469968;28;1093;-70
2023/10/26 01:07:36;;;;;;;3.00;2.70;;;;;;;;;;470790;28;922;-70
2023/10/26 01:07:51;;;;;;;3.10;2.80;;;;;;;;;;470861;28;2020;-69
2023/10/26 01:08:07;;;;;;;3.00;2.70;;;;;;;;;;468695;28;1081;-69
2023/10/26 01:08:23;;;;;;;2.80;2.60;;;;;;;;;;469113;28;1068;-70
2023/10/26 01:08:39;;;;;;;3.10;2.80;;;;;;;;;;469301;28;886;-70
2023/10/26 01:08:54;;;;;;;3.07;2.77;;;;;;;;;;469371;28;1035;-70
2023/10/26 01:09:10;;;;;;;3.35;2.70;;;;;;;;;;466198;28;1168;-69
2023/10/26 01:09:26;;;;;;;3.70;2.90;;;;;;;;;;469243;28;1054;-69
2023/10/26 01:09:41;;;;;;;3.67;2.90;;;;;;;;;;469669;28;1003;-70
2023/10/26 01:09:57;;;;;;;3.70;2.92;;;;;;;;;;470149;28;1241;-69
2023/10/26 01:10:12;;;;;;;3.40;3.00;;;;;;;;;;470722;28;1049;-70
2023/10/26 01:10:28;;;;;;;3.13;2.73;;;;;;;;;;467705;28;1271;-70
2023/10/26 01:10:43;;;;;;;3.00;2.60;;;;;;;;;;466927;28;938;-69
2023/10/26 01:10:58;;;;;;;3.70;2.70;;;;;;;;;;469417;28;1222;-70
2023/10/26 01:11:14;;;;;;;3.43;2.90;;;;;;;;;;471158;28;997;-70
2023/10/26 01:11:30;;;;;;;3.10;2.80;;;;;;;;;;470898;28;1203;-69
2023/10/26 01:11:46;;;;;;;2.85;2.65;;;;;;;;;;472310;28;901;-70
2023/10/26 01:12:01;;;;;;;3.10;2.80;;;;;;;;;;470634;28;945;-69
2023/10/26 01:12:17;;;;;;;3.10;2.80;;;;;;;;;;471152;28;1212;-70
2023/10/26 01:12:32;;;;;;;3.08;2.80;;;;;;;;;;471383;28;862;-70
2023/10/26 01:12:48;;;;;;;2.90;2.70;;;;;;;;;;470599;28;1250;-70
2023/10/26 01:13:04;;;;;;;3.40;2.80;;;;;;;;;;468998;28;1002;-70
2023/10/26 01:13:19;;;;;;;3.53;3.00;;;;;;;;;;469138;28;960;-70
2023/10/26 01:13:35;;;;;;;3.97;3.00;;;;;;;;;;469245;28;1160;-69
2023/10/26 01:13:51;;;;;;;3.95;2.90;;;;;;;;;;469149;28;912;-70
2023/10/26 01:14:07;;;;;;;3.40;3.00;;;;;;;;;;469498;28;902;-71
2023/10/26 01:14:23;;;;;;;3.42;3.05;;;;;;;;;;469016;28;1276;-70
2023/10/26 01:14:39;;;;;;;3.60;2.97;;;;;;;;;;470125;28;1151;-70
2023/10/26 01:14:54;;;;;;;3.47;2.95;;;;;;;;;;470746;28;910;-70
2023/10/26 01:15:10;;;;;;;3.27;2.97;;;;;;;;;;468567;28;1017;-69
2023/10/26 01:15:26;;;;;;;3.50;2.97;;;;;;;;;;469600;28;1193;-69
2023/10/26 01:15:42;;;;;;;3.58;3.03;;;;;;;;;;469871;28;1208;-69
2023/10/26 01:15:57;;;;;;;3.50;3.20;;;;;;;;;;471382;28;937;-70
2023/10/26 01:16:12;;;;;;;3.40;3.10;;;;;;;;;;468784;28;1049;-70
2023/10/26 01:16:28;;;;;;;3.27;2.97;;;;;;;;;;469621;28;966;-70
2023/10/26 01:16:44;;;;;;;3.40;3.10;;;;;;;;;;470413;28;1015;-69
2023/10/26 01:17:00;;;;;;;3.50;3.20;;;;;;;;;;469047;28;1243;-69
2023/10/26 01:17:15;;;;;;;3.30;3.00;;;;;;;;;;468845;28;914;-70
2023/10/26 01:17:32;;;;;;;3.20;2.90;;;;;;;;;;469013;28;1221;-70
2023/10/26 01:17:47;;;;;;;3.30;3.00;;;;;;;;;;468831;28;1131;-69
2023/10/26 01:18:02;;;;;;;3.30;2.93;;;;;;;;;;469206;28;1181;-69
2023/10/26 01:18:18;;;;;;;3.67;2.97;;;;;;;;;;468732;28;886;-70
2023/10/26 01:18:33;;;;;;;4.00;3.22;;;;;;;;;;469695;28;1054;-70
2023/10/26 01:18:48;;;;;;;3.90;3.40;;;;;;;;;;471094;28;876;-70
2023/10/26 01:19:04;;;;;;;4.37;3.23;;;;;;;;;;467754;28;1104;-69
2023/10/26 01:19:35;;;;;;;4.10;3.40;;;;;;;;;;469145;28;1319;-69
2023/10/26 01:19:50;;;;;;;3.42;3.10;;;;;;;;;;466118;28;1112;-70
2023/10/26 01:20:06;;;;;;;3.50;3.20;;;;;;;;;;468086;28;1290;-70
2023/10/26 01:20:22;;;;;;;3.50;3.20;;;;;;;;;;468467;28;945;-70
2023/10/26 01:20:40;;;;;;;3.40;3.10;;;;;;;;;;467434;28;1107;-70
2023/10/26 01:20:56;;;;;;;3.75;3.30;;;;;;;;;;467812;28;1311;-69
2023/10/26 01:21:11;;;;;;;3.73;3.40;;;;;;;;;;468019;28;1265;-69
2023/10/26 01:21:50;;;;;;;4.03;3.55;;;;;;;;;;467824;28;910;-69
2023/10/26 01:22:06;;;;;;;3.95;3.45;;;;;;;;;;469234;28;1378;-69
2023/10/26 01:22:28;;;;;;;3.63;3.27;;;;;;;;;;469037;28;1207;-70
2023/10/26 01:22:44;;;;;;;3.50;3.20;;;;;;;;;;470046;28;966;-69
2023/10/26 01:22:59;;;;;;;3.60;3.20;;;;;;;;;;470022;28;1301;-69
2023/10/26 01:23:14;;;;;;;3.90;3.33;;;;;;;;;;470109;28;1268;-70
2023/10/26 01:23:29;;;;;;;3.60;3.30;;;;;;;;;;472001;28;1126;-70
2023/10/26 01:23:45;;;;;;;3.60;3.20;;;;;;;;;;471055;28;1262;-69
2023/10/26 01:24:00;;;;;;;3.50;3.20;;;;;;;;;;470419;28;1141;-70
2023/10/26 01:24:15;;;;;;;3.60;3.30;;;;;;;;;;470536;28;1095;-70
2023/10/26 01:24:31;;;;;;;3.40;3.10;;;;;;;;;;469264;28;1712;-70
2023/10/26 01:24:46;;;;;;;3.40;3.10;;;;;;;;;;469186;28;1439;-69
2023/10/26 01:25:02;;;;;;;3.80;3.42;;;;;;;;;;468822;28;1018;-70
2023/10/26 01:25:17;;;;;;;3.87;3.57;;;;;;;;;;469270;28;866;-70
2023/10/26 01:25:32;;;;;;;3.67;3.38;;;;;;;;;;470756;28;1249;-70
2023/10/26 01:25:52;;;;;;;3.57;3.27;;;;;;;;;;471549;28;861;-70
2023/10/26 01:26:08;;;;;;;3.70;3.30;;;;;;;;;;470436;28;1515;-70
2023/10/26 01:26:23;;;;;;;4.00;3.43;;;;;;;;;;471363;28;1111;-70
2023/10/26 01:26:40;;;;;;;4.00;3.45;;;;;;;;;;470396;28;1005;-70
2023/10/26 01:26:55;;;;;;;3.85;3.45;;;;;;;;;;472684;28;1211;-70
2023/10/26 01:27:10;;;;;;;3.80;3.47;;;;;;;;;;471144;28;985;-69
2023/10/26 01:27:26;;;;;;;4.10;3.70;;;;;;;;;;469566;28;1375;-69
2023/10/26 01:27:41;;;;;;;3.90;3.50;;;;;;;;;;469443;28;1065;-69
2023/10/26 01:27:56;;;;;;;3.80;3.50;;;;;;;;;;468514;28;2015;-70
2023/10/26 01:28:12;;;;;;;4.10;3.70;;;;;;;;;;469500;28;1124;-69
2023/10/26 01:28:27;;;;;;;3.97;3.40;;;;;;;;;;468340;28;2624;-70
2023/10/26 01:28:42;;;;;;;3.85;3.50;;;;;;;;;;466391;28;1178;-70
2023/10/26 01:29:02;;;;;;;3.80;3.50;;;;;;;;;;466093;28;1181;-70
2023/10/26 01:29:19;;;;;;;3.70;3.40;;;;;;;;;;468204;28;929;-69
2023/10/26 01:29:35;;;;;;;3.90;3.50;;;;;;;;;;467683;28;1350;-69
2023/10/26 01:29:50;;;;;;;4.57;3.60;;;;;;;;;;468153;28;1133;-69
2023/10/26 01:30:06;;;;;;;4.23;3.40;;;;;;;;;;467945;28;1233;-70
2023/10/26 01:30:21;;;;;;;3.80;3.40;;;;;;;;;;468842;28;1168;-70
2023/10/26 01:30:40;;;;;;;4.27;3.47;;;;;;;;;;469832;28;1133;-69
2023/10/26 01:30:56;;;;;;;4.70;3.40;;;;;;;;;;485805;28;1127;-70
2023/10/26 01:31:16;;;;;;;4.20;3.45;;;;;;;;;;475195;28;991;-69
2023/10/26 01:31:32;;;;;;;3.95;3.42;;;;;;;;;;471572;28;1277;-69
2023/10/26 01:31:48;;;;;;;3.60;3.30;;;;;;;;;;468058;28;1018;-69
2023/10/26 01:32:04;;;;;;;3.67;3.38;;;;;;;;;;468208;28;1055;-69
2023/10/26 01:32:20;;;;;;;3.80;3.40;;;;;;;;;;473631;28;1081;-71
2023/10/26 01:32:35;;;;;;;3.60;3.30;;;;;;;;;;485423;28;1216;-70
2023/10/26 01:32:51;;;;;;;3.70;3.40;;;;;;;;;;478446;28;1089;-70
2023/10/26 01:33:06;;;;;;;3.80;3.42;;;;;;;;;;470844;28;925;-70
2023/10/26 01:33:21;;;;;;;3.80;3.40;;;;;;;;;;474794;28;1170;-70
2023/10/26 01:33:37;;;;;;;3.70;3.40;;;;;;;;;;488615;28;1115;-70
2023/10/26 01:33:52;;;;;;;4.00;3.33;;;;;;;;;;478334;28;909;-69
2023/10/26 01:34:07;;;;;;;3.83;3.30;;;;;;;;;;472573;28;942;-69
2023/10/26 01:34:23;;;;;;;4.00;3.40;;;;;;;;;;473083;28;1139;-69
2023/10/26 01:34:39;;;;;;;4.38;3.58;;;;;;;;;;470540;28;1114;-70
2023/10/26 01:34:54;;;;;;;3.87;3.47;;;;;;;;;;471394;28;1145;-69
2023/10/26 01:35:09;;;;;;;3.75;3.38;;;;;;;;;;469459;28;999;-70
2023/10/26 01:35:25;;;;;;;3.70;3.40;;;;;;;;;;481284;28;1217;-70
2023/10/26 01:35:45;;;;;;;4.00;3.60;;;;;;;;;;478763;28;983;-70
2023/10/26 01:36:01;;;;;;;3.92;3.53;;;;;;;;;;468231;28;1104;-70
2023/10/26 01:36:16;;;;;;;3.88;3.53;;;;;;;;;;471397;28;1147;-70
2023/10/26 01:36:31;;;;;;;4.03;3.63;;;;;;;;;;468997;28;998;-69
2023/10/26 01:36:47;;;;;;;3.93;3.47;;;;;;;;;;470159;28;1125;-69
2023/10/26 01:37:05;;;;;;;3.65;3.25;;;;;;;;;;471266;28;1120;-70
2023/10/26 01:37:21;;;;;;;3.90;3.50;;;;;;;;;;470113;28;1169;-70
2023/10/26 01:37:37;;;;;;;4.00;3.55;;;;;;;;;;466586;28;1125;-70
2023/10/26 01:37:53;;;;;;;3.88;3.50;;;;;;;;;;467643;28;1318;-70
2023/10/26 01:38:08;;;;;;;3.90;3.60;;;;;;;;;;470084;28;1340;-69
2023/10/26 01:38:23;;;;;;;4.50;3.70;;;;;;;;;;468266;28;1262;-69